RoSS Sea — WDE3122 — position and weather

sailwx.info

Track history (hours):
 
Tides and Currents Weather Stations Pressure Air Temp Water Temp Dewpoint Dewpoint Depression Visibility Wind Speed Wind Dir Waves Ship Positions

RoSS Sea

Owner: Kirby Inland Marine, LP, Houston, TX. More information available from US FCC via Universal Licensing System and Coast Guard Vessel Documentation Center.

Last reported at 2015-Aug-31 06:25 UTC. Time now 2015-Sep-02 08:34 UTC.
Position N 36°58' W 074°51'.

Length 30 m; draft 5 m.

Type: Tow > 200 m length. MMSI: 367334360.

Date/timePositionNaut miles runAvg speedWind from/ knotsBaromVisibWave heightAir tempDewpointWater temp
2015-Aug-31 06:25N 36°58' W 074°51'16 8.4
2015-Aug-31 04:33N 37°14' W 074°49'9 8.5
2015-Aug-31 03:31N 37°22' W 074°47'10 8.1
2015-Aug-31 02:20N 37°32' W 074°45'120 8.1
2015-Aug-30 11:34N 39°27' W 074°02'8 7.9
2015-Aug-30 10:33N 39°34' W 073°58'56 7.6
2015-Aug-30 03:17N 40°30' W 073°56'6 8.8
2015-Aug-30 02:33N 40°34' W 074°02'7 6.9
2015-Aug-30 01:33N 40°41' W 074°02'6 5.6
2015-Aug-30 00:33N 40°46' W 074°00'5 5.0
2015-Aug-29 23:33N 40°51' W 073°57'5 0.3
2015-Aug-29 05:25N 40°56' W 073°54'0 0.0
2015-Aug-27 08:34N 40°56' W 073°54'0 0.0
2015-Aug-27 07:32N 40°56' W 073°54'0 0.0
2015-Aug-27 05:09N 40°56' W 073°54'0 0.0
2015-Aug-27 04:05N 40°56' W 073°54'0 0.0
2015-Aug-25 05:32N 40°56' W 073°54'0 0.0
2015-Aug-25 04:34N 40°56' W 073°54'0 0.0
2015-Aug-25 03:33N 40°56' W 073°54'0 0.0
2015-Aug-25 02:22N 40°56' W 073°54'0 0.0
2015-Aug-25 01:24N 40°56' W 073°54'0 0.0
2015-Aug-24 23:30N 40°56' W 073°54'0 0.0
2015-Aug-24 15:06N 40°56' W 073°54'0 0.0
2015-Aug-24 13:21N 40°56' W 073°54'4 0.3
2015-Aug-24 00:34N 40°52' W 073°56'10 9.7
2015-Aug-23 23:33N 40°44' W 074°01'8 8.2
2015-Aug-23 22:34N 40°39' W 074°10'0 0.0
2015-Aug-23 21:32N 40°39' W 074°10'0 0.0
2015-Aug-23 20:33N 40°39' W 074°10'0 0.0
2015-Aug-23 19:32N 40°39' W 074°10'1 1.4
2015-Aug-23 18:33N 40°38' W 074°12'0 0.0
2015-Aug-23 17:34N 40°38' W 074°12'0 0.0
2015-Aug-23 16:34N 40°38' W 074°12'0 0.0
2015-Aug-23 15:33N 40°38' W 074°12'0 0.0
2015-Aug-23 14:33N 40°38' W 074°12'0 0.0
2015-Aug-23 13:34N 40°38' W 074°12'0 0.0
2015-Aug-23 12:34N 40°38' W 074°12'1 1.4
2015-Aug-23 11:33N 40°39' W 074°10'6 6.3
2015-Aug-23 10:33N 40°41' W 074°02'1111.0
2015-Aug-23 09:33N 40°51' W 073°57'5 1.5
2015-Aug-23 06:20N 40°56' W 073°54'0 0.0
2015-Aug-23 05:32N 40°56' W 073°54'0 0.0
2015-Aug-22 22:20N 40°56' W 073°54'0 0.0
2015-Aug-22 12:29N 40°56' W 073°54'0 0.0
2015-Aug-22 11:26N 40°56' W 073°54'0 0.0
2015-Aug-22 10:23N 40°56' W 073°54'0 0.0
2015-Aug-22 09:32N 40°56' W 073°54'0 0.0
2015-Aug-22 08:32N 40°56' W 073°54'0 0.0
2015-Aug-22 02:14N 40°56' W 073°54'0 0.0
2015-Aug-22 01:32N 40°56' W 073°54'0 0.0
2015-Aug-22 00:32N 40°56' W 073°54'0 0.0
2015-Aug-21 22:23N 40°56' W 073°54'0 0.0
2015-Aug-21 21:23N 40°56' W 073°54'1 0.0
2015-Aug-21 08:10N 40°56' W 073°55'0 0.0
2015-Aug-21 07:28N 40°56' W 073°55'0 0.0
2015-Aug-21 06:28N 40°56' W 073°55'  
Track history (hours):
 
Tides and Currents Weather Stations Pressure Air Temp Water Temp Dewpoint Dewpoint Depression Visibility Wind Speed Wind Dir Waves Ship Positions

RoSS Sea

Owner: Kirby Inland Marine, LP, Houston, TX. More information available from US FCC via Universal Licensing System and Coast Guard Vessel Documentation Center.

Last reported at 2015-Aug-31 06:25 UTC. Time now 2015-Sep-02 08:34 UTC.
Position N 36°58' W 074°51'.

Length 30 m; draft 5 m.

Type: Tow > 200 m length. MMSI: 367334360.

Date/timePositionNaut miles runAvg speedWind from/ knotsBaromVisibWave heightAir tempDewpointWater temp
2015-Aug-31 06:25N 36°58' W 074°51'16 8.4
2015-Aug-31 04:33N 37°14' W 074°49'9 8.5
2015-Aug-31 03:31N 37°22' W 074°47'10 8.1
2015-Aug-31 02:20N 37°32' W 074°45'120 8.1
2015-Aug-30 11:34N 39°27' W 074°02'8 7.9
2015-Aug-30 10:33N 39°34' W 073°58'56 7.6
2015-Aug-30 03:17N 40°30' W 073°56'6 8.8
2015-Aug-30 02:33N 40°34' W 074°02'7 6.9
2015-Aug-30 01:33N 40°41' W 074°02'6 5.6
2015-Aug-30 00:33N 40°46' W 074°00'5 5.0
2015-Aug-29 23:33N 40°51' W 073°57'5 0.3
2015-Aug-29 05:25N 40°56' W 073°54'0 0.0
2015-Aug-27 08:34N 40°56' W 073°54'0 0.0
2015-Aug-27 07:32N 40°56' W 073°54'0 0.0
2015-Aug-27 05:09N 40°56' W 073°54'0 0.0
2015-Aug-27 04:05N 40°56' W 073°54'0 0.0
2015-Aug-25 05:32N 40°56' W 073°54'0 0.0
2015-Aug-25 04:34N 40°56' W 073°54'0 0.0
2015-Aug-25 03:33N 40°56' W 073°54'0 0.0
2015-Aug-25 02:22N 40°56' W 073°54'0 0.0
2015-Aug-25 01:24N 40°56' W 073°54'0 0.0
2015-Aug-24 23:30N 40°56' W 073°54'0 0.0
2015-Aug-24 15:06N 40°56' W 073°54'0 0.0
2015-Aug-24 13:21N 40°56' W 073°54'4 0.3
2015-Aug-24 00:34N 40°52' W 073°56'10 9.7
2015-Aug-23 23:33N 40°44' W 074°01'8 8.2
2015-Aug-23 22:34N 40°39' W 074°10'0 0.0
2015-Aug-23 21:32N 40°39' W 074°10'0 0.0
2015-Aug-23 20:33N 40°39' W 074°10'0 0.0
2015-Aug-23 19:32N 40°39' W 074°10'1 1.4
2015-Aug-23 18:33N 40°38' W 074°12'0 0.0
2015-Aug-23 17:34N 40°38' W 074°12'0 0.0
2015-Aug-23 16:34N 40°38' W 074°12'0 0.0
2015-Aug-23 15:33N 40°38' W 074°12'0 0.0
2015-Aug-23 14:33N 40°38' W 074°12'0 0.0
2015-Aug-23 13:34N 40°38' W 074°12'0 0.0
2015-Aug-23 12:34N 40°38' W 074°12'1 1.4
2015-Aug-23 11:33N 40°39' W 074°10'6 6.3
2015-Aug-23 10:33N 40°41' W 074°02'1111.0
2015-Aug-23 09:33N 40°51' W 073°57'5 1.5
2015-Aug-23 06:20N 40°56' W 073°54'0 0.0
2015-Aug-23 05:32N 40°56' W 073°54'0 0.0
2015-Aug-22 22:20N 40°56' W 073°54'0 0.0
2015-Aug-22 12:29N 40°56' W 073°54'0 0.0
2015-Aug-22 11:26N 40°56' W 073°54'0 0.0
2015-Aug-22 10:23N 40°56' W 073°54'0 0.0
2015-Aug-22 09:32N 40°56' W 073°54'0 0.0
2015-Aug-22 08:32N 40°56' W 073°54'0 0.0
2015-Aug-22 02:14N 40°56' W 073°54'0 0.0
2015-Aug-22 01:32N 40°56' W 073°54'0 0.0
2015-Aug-22 00:32N 40°56' W 073°54'0 0.0
2015-Aug-21 22:23N 40°56' W 073°54'0 0.0
2015-Aug-21 21:23N 40°56' W 073°54'1 0.0
2015-Aug-21 08:10N 40°56' W 073°55'0 0.0
2015-Aug-21 07:28N 40°56' W 073°55'0 0.0
2015-Aug-21 06:28N 40°56' W 073°55'  

Dump ship's entire track history